Time,TemperatureF,DewpointF,PressureIn,WindDirection,WindDirectionDegrees,WindSpeedMPH,WindSpeedGustMPH,Humidity,HourlyPrecipIn,Conditions,Clouds,dailyrainin,SoftwareType,DateUTC
2013-02-04 00:01:00,17.0,12.0,-100.00,North,-999,-999.0,-999.0,81,-99.99,,,-99.99,,2013-02-04 07:01:00,
2013-02-04 00:11:00,17.0,12.0,-100.00,North,-999,-999.0,-999.0,81,-99.99,,,-99.99,,2013-02-04 07:11:00,
2013-02-04 00:21:00,17.0,12.0,-100.00,North,-999,-999.0,-999.0,82,-99.99,,,-99.99,,2013-02-04 07:21:00,
2013-02-04 00:31:00,19.0,12.0,-100.00,North,-999,-999.0,-999.0,75,-99.99,,,-99.99,,2013-02-04 07:31:00,
2013-02-04 00:41:00,19.0,12.0,-100.00,North,-999,-999.0,-999.0,75,-99.99,,,-99.99,,2013-02-04 07:41:00,
2013-02-04 00:52:00,19.0,12.0,-100.00,North,-999,-999.0,-999.0,75,-99.99,,,-99.99,,2013-02-04 07:52:00,
2013-02-04 01:01:00,18.0,12.0,-100.00,North,-999,-999.0,-999.0,78,-99.99,,,-99.99,,2013-02-04 08:01:00,
2013-02-04 01:11:00,18.0,12.0,-100.00,North,-999,-999.0,-999.0,78,-99.99,,,-99.99,,2013-02-04 08:11:00,
2013-02-04 01:21:00,17.0,11.0,-100.00,North,-999,-999.0,-999.0,78,-99.99,,,-99.99,,2013-02-04 08:21:00,
2013-02-04 01:31:00,18.0,12.0,-100.00,North,-999,-999.0,-999.0,78,-99.99,,,-99.99,,2013-02-04 08:31:00,
2013-02-04 01:41:00,18.0,12.0,-100.00,North,-999,-999.0,-999.0,78,-99.99,,,-99.99,,2013-02-04 08:41:00,
2013-02-04 01:52:00,19.0,13.0,-100.00,North,-999,-999.0,-999.0,78,-99.99,,,-99.99,,2013-02-04 08:52:00,
2013-02-04 02:01:00,18.0,13.0,-100.00,North,-999,-999.0,-999.0,80,-99.99,,,-99.99,,2013-02-04 09:01:00,
2013-02-04 02:11:00,18.0,13.0,-100.00,North,-999,-999.0,-999.0,80,-99.99,,,-99.99,,2013-02-04 09:11:00,
2013-02-04 02:21:00,19.0,14.0,-100.00,North,-999,-999.0,-999.0,80,-99.99,,,-99.99,,2013-02-04 09:21:00,
2013-02-04 02:31:00,19.0,13.0,-100.00,North,-999,-999.0,-999.0,78,-99.99,,,-99.99,,2013-02-04 09:31:00,
2013-02-04 02:41:00,19.0,13.0,-100.00,North,-999,-999.0,-999.0,78,-99.99,,,-99.99,,2013-02-04 09:41:00,
2013-02-04 02:52:00,19.0,13.0,-100.00,North,-999,-999.0,-999.0,78,-99.99,,,-99.99,,2013-02-04 09:52:00,
2013-02-04 03:01:00,19.0,13.0,-100.00,North,-999,-999.0,-999.0,76,-99.99,,,-99.99,,2013-02-04 10:01:00,
2013-02-04 03:11:00,19.0,13.0,-100.00,North,-999,-999.0,-999.0,76,-99.99,,,-99.99,,2013-02-04 10:11:00,
2013-02-04 03:21:00,19.0,13.0,-100.00,North,-999,-999.0,-999.0,78,-99.99,,,-99.99,,2013-02-04 10:21:00,
2013-02-04 03:32:00,17.0,13.0,-100.00,North,-999,-999.0,-999.0,84,-99.99,,,-99.99,,2013-02-04 10:32:00,
2013-02-04 03:41:00,17.0,13.0,-100.00,North,-999,-999.0,-999.0,84,-99.99,,,-99.99,,2013-02-04 10:41:00,
2013-02-04 03:52:00,17.0,13.0,-100.00,North,-999,-999.0,-999.0,83,-99.99,,,-99.99,,2013-02-04 10:52:00,
2013-02-04 04:01:00,16.0,13.0,-100.00,North,-999,-999.0,-999.0,88,-99.99,,,-99.99,,2013-02-04 11:01:00,
2013-02-04 04:11:00,16.0,13.0,-100.00,North,-999,-999.0,-999.0,88,-99.99,,,-99.99,,2013-02-04 11:11:00,
2013-02-04 04:22:00,15.0,13.0,-100.00,North,-999,-999.0,-999.0,90,-99.99,,,-99.99,,2013-02-04 11:22:00,
2013-02-04 04:32:00,15.0,13.0,-100.00,North,-999,-999.0,-999.0,90,-99.99,,,-99.99,,2013-02-04 11:32:00,
2013-02-04 04:42:00,15.0,13.0,-100.00,North,-999,-999.0,-999.0,90,-99.99,,,-99.99,,2013-02-04 11:42:00,
2013-02-04 04:52:00,15.0,13.0,-100.00,North,-999,-999.0,-999.0,91,-99.99,,,-99.99,,2013-02-04 11:52:00,
2013-02-04 05:02:00,15.0,13.0,-100.00,North,-999,-999.0,-999.0,91,-99.99,,,-99.99,,2013-02-04 12:02:00,
2013-02-04 05:12:00,15.0,13.0,-100.00,North,-999,-999.0,-999.0,91,-99.99,,,-99.99,,2013-02-04 12:12:00,
2013-02-04 05:21:00,15.0,13.0,-100.00,North,-999,-999.0,-999.0,92,-99.99,,,-99.99,,2013-02-04 12:21:00,
2013-02-04 05:32:00,16.0,14.0,-100.00,North,-999,-999.0,-999.0,91,-99.99,,,-99.99,,2013-02-04 12:32:00,
2013-02-04 05:42:00,16.0,14.0,-100.00,North,-999,-999.0,-999.0,91,-99.99,,,-99.99,,2013-02-04 12:42:00,
2013-02-04 05:53:00,15.0,13.0,-100.00,North,-999,-999.0,-999.0,92,-99.99,,,-99.99,,2013-02-04 12:53:00,
2013-02-04 06:02:00,15.0,14.0,-100.00,North,-999,-999.0,-999.0,94,-99.99,,,-99.99,,2013-02-04 13:02:00,
2013-02-04 06:11:00,15.0,14.0,-100.00,North,-999,-999.0,-999.0,94,-99.99,,,-99.99,,2013-02-04 13:11:00,
2013-02-04 06:21:00,15.0,13.0,-100.00,North,-999,-999.0,-999.0,93,-99.99,,,-99.99,,2013-02-04 13:21:00,
2013-02-04 06:32:00,15.0,14.0,-100.00,North,-999,-999.0,-999.0,94,-99.99,,,-99.99,,2013-02-04 13:32:00,
2013-02-04 06:41:00,15.0,14.0,-100.00,North,-999,-999.0,-999.0,94,-99.99,,,-99.99,,2013-02-04 13:41:00,
2013-02-04 06:52:00,15.0,13.0,-100.00,North,-999,-999.0,-999.0,93,-99.99,,,-99.99,,2013-02-04 13:52:00,
2013-02-04 07:02:00,15.0,14.0,-100.00,North,-999,-999.0,-999.0,94,-99.99,,,-99.99,,2013-02-04 14:02:00,
2013-02-04 07:11:00,15.0,14.0,-100.00,North,-999,-999.0,-999.0,94,-99.99,,,-99.99,,2013-02-04 14:11:00,
2013-02-04 07:21:00,15.0,14.0,-100.00,North,-999,-999.0,-999.0,94,-99.99,,,-99.99,,2013-02-04 14:21:00,
2013-02-04 07:32:00,15.0,14.0,-100.00,North,-999,-999.0,-999.0,94,-99.99,,,-99.99,,2013-02-04 14:32:00,
2013-02-04 07:42:00,15.0,14.0,-100.00,North,-999,-999.0,-999.0,94,-99.99,,,-99.99,,2013-02-04 14:42:00,
2013-02-04 07:52:00,15.0,14.0,-100.00,North,-999,-999.0,-999.0,94,-99.99,,,-99.99,,2013-02-04 14:52:00,
2013-02-04 08:03:00,16.0,14.0,-100.00,North,-999,-999.0,-999.0,92,-99.99,,,-99.99,,2013-02-04 15:03:00,
2013-02-04 08:12:00,16.0,14.0,-100.00,North,-999,-999.0,-999.0,92,-99.99,,,-99.99,,2013-02-04 15:12:00,
2013-02-04 08:23:00,16.0,14.0,-100.00,North,-999,-999.0,-999.0,92,-99.99,,,-99.99,,2013-02-04 15:23:00,
2013-02-04 08:30:00,16.0,14.0,-100.00,North,-999,-999.0,-999.0,93,-99.99,,,-99.99,,2013-02-04 15:30:00,
2013-02-04 08:33:00,15.0,13.0,-100.00,North,-999,-999.0,-999.0,93,-99.99,,,-99.99,,2013-02-04 15:33:00,
2013-02-04 08:43:00,15.0,13.0,-100.00,North,-999,-999.0,-999.0,93,-99.99,,,-99.99,,2013-02-04 15:43:00,
2013-02-04 08:52:00,16.0,14.0,-100.00,North,-999,-999.0,-999.0,93,-99.99,,,-99.99,,2013-02-04 15:52:00,
2013-02-04 09:02:00,16.0,14.0,-100.00,North,-999,-999.0,-999.0,93,-99.99,,,-99.99,,2013-02-04 16:02:00,
2013-02-04 09:11:00,16.0,14.0,-100.00,North,-999,-999.0,-999.0,93,-99.99,,,-99.99,,2013-02-04 16:11:00,
2013-02-04 09:22:00,16.0,14.0,-100.00,North,-999,-999.0,-999.0,93,-99.99,,,-99.99,,2013-02-04 16:22:00,
2013-02-04 11:03:00,23.0,18.0,-100.00,North,-999,-999.0,-999.0,81,-99.99,,,-99.99,,2013-02-04 18:03:00,
2013-02-04 11:11:00,23.0,18.0,-100.00,North,-999,-999.0,-999.0,81,-99.99,,,-99.99,,2013-02-04 18:11:00,
2013-02-04 11:22:00,24.0,18.0,-100.00,North,-999,-999.0,-999.0,78,-99.99,,,-99.99,,2013-02-04 18:22:00,
2013-02-04 11:31:00,25.0,19.0,-100.00,North,-999,-999.0,-999.0,76,-99.99,,,-99.99,,2013-02-04 18:31:00,
2013-02-04 11:41:00,25.0,19.0,-100.00,North,-999,-999.0,-999.0,76,-99.99,,,-99.99,,2013-02-04 18:41:00,
2013-02-04 11:52:00,25.0,18.0,-100.00,North,-999,-999.0,-999.0,75,-99.99,,,-99.99,,2013-02-04 18:52:00,
2013-02-04 12:01:00,24.0,18.0,-100.00,North,-999,-999.0,-999.0,76,-99.99,,,-99.99,,2013-02-04 19:01:00,
2013-02-04 12:11:00,24.0,18.0,-100.00,North,-999,-999.0,-999.0,76,-99.99,,,-99.99,,2013-02-04 19:11:00,
2013-02-04 12:22:00,26.0,19.0,-100.00,North,-999,-999.0,-999.0,73,-99.99,,,-99.99,,2013-02-04 19:22:00,
2013-02-04 12:31:00,27.0,17.0,-100.00,North,-999,-999.0,-999.0,66,-99.99,,,-99.99,,2013-02-04 19:31:00,
2013-02-04 12:41:00,27.0,17.0,-100.00,North,-999,-999.0,-999.0,66,-99.99,,,-99.99,,2013-02-04 19:41:00,
2013-02-04 12:52:00,27.0,19.0,-100.00,North,-999,-999.0,-999.0,71,-99.99,,,-99.99,,2013-02-04 19:52:00,
2013-02-04 13:01:00,27.0,19.0,-100.00,North,-999,-999.0,-999.0,72,-99.99,,,-99.99,,2013-02-04 20:01:00,
2013-02-04 13:11:00,26.0,19.0,-100.00,North,-999,-999.0,-999.0,75,-99.99,,,-99.99,,2013-02-04 20:11:00,
2013-02-04 13:21:00,26.0,19.0,-100.00,North,-999,-999.0,-999.0,75,-99.99,,,-99.99,,2013-02-04 20:21:00,
2013-02-04 13:32:00,26.0,19.0,-100.00,North,-999,-999.0,-999.0,75,-99.99,,,-99.99,,2013-02-04 20:32:00,
2013-02-04 13:42:00,28.0,18.0,-100.00,North,-999,-999.0,-999.0,65,-99.99,,,-99.99,,2013-02-04 20:42:00,
2013-02-04 13:52:00,28.0,18.0,-100.00,North,-999,-999.0,-999.0,65,-99.99,,,-99.99,,2013-02-04 20:52:00,
2013-02-04 14:02:00,28.0,18.0,-100.00,North,-999,-999.0,-999.0,65,-99.99,,,-99.99,,2013-02-04 21:02:00,
2013-02-04 14:11:00,28.0,18.0,-100.00,North,-999,-999.0,-999.0,65,-99.99,,,-99.99,,2013-02-04 21:11:00,
2013-02-04 14:22:00,27.0,18.0,-100.00,North,-999,-999.0,-999.0,67,-99.99,,,-99.99,,2013-02-04 21:22:00,
2013-02-04 14:31:00,26.0,17.0,-100.00,North,-999,-999.0,-999.0,68,-99.99,,,-99.99,,2013-02-04 21:31:00,
2013-02-04 14:42:00,25.0,16.0,-100.00,North,-999,-999.0,-999.0,68,-99.99,,,-99.99,,2013-02-04 21:42:00,
2013-02-04 14:52:00,25.0,16.0,-100.00,North,-999,-999.0,-999.0,68,-99.99,,,-99.99,,2013-02-04 21:52:00,
2013-02-04 15:02:00,25.0,16.0,-100.00,North,-999,-999.0,-999.0,67,-99.99,,,-99.99,,2013-02-04 22:02:00,
2013-02-04 15:11:00,26.0,16.0,-100.00,North,-999,-999.0,-999.0,65,-99.99,,,-99.99,,2013-02-04 22:11:00,
2013-02-04 15:21:00,26.0,16.0,-100.00,North,-999,-999.0,-999.0,65,-99.99,,,-99.99,,2013-02-04 22:21:00,
2013-02-04 15:32:00,26.0,18.0,-100.00,North,-999,-999.0,-999.0,71,-99.99,,,-99.99,,2013-02-04 22:32:00,
2013-02-04 15:41:00,26.0,19.0,-100.00,North,-999,-999.0,-999.0,73,-99.99,,,-99.99,,2013-02-04 22:41:00,
2013-02-04 15:52:00,26.0,19.0,-100.00,North,-999,-999.0,-999.0,73,-99.99,,,-99.99,,2013-02-04 22:52:00,
2013-02-04 16:01:00,27.0,19.0,-100.00,North,-999,-999.0,-999.0,71,-99.99,,,-99.99,,2013-02-04 23:01:00,
2013-02-04 16:11:00,27.0,19.0,-100.00,North,-999,-999.0,-999.0,71,-99.99,,,-99.99,,2013-02-04 23:11:00,
2013-02-04 16:21:00,26.0,18.0,-100.00,North,-999,-999.0,-999.0,72,-99.99,,,-99.99,,2013-02-04 23:21:00,
2013-02-04 16:32:00,25.0,18.0,-100.00,North,-999,-999.0,-999.0,73,-99.99,,,-99.99,,2013-02-04 23:32:00,
2013-02-04 16:41:00,25.0,18.0,-100.00,North,-999,-999.0,-999.0,73,-99.99,,,-99.99,,2013-02-04 23:41:00,
2013-02-04 16:52:00,25.0,18.0,-100.00,North,-999,-999.0,-999.0,74,-99.99,,,-99.99,,2013-02-04 23:52:00,
2013-02-04 17:01:00,24.0,17.0,-100.00,North,-999,-999.0,-999.0,75,-99.99,,,-99.99,,2013-02-05 00:01:00,
2013-02-04 17:11:00,24.0,17.0,-100.00,North,-999,-999.0,-999.0,75,-99.99,,,-99.99,,2013-02-05 00:11:00,
2013-02-04 17:21:00,23.0,17.0,-100.00,North,-999,-999.0,-999.0,79,-99.99,,,-99.99,,2013-02-05 00:21:00,
2013-02-04 17:31:00,23.0,18.0,-100.00,North,-999,-999.0,-999.0,80,-99.99,,,-99.99,,2013-02-05 00:31:00,
2013-02-04 17:42:00,23.0,18.0,-100.00,North,-999,-999.0,-999.0,80,-99.99,,,-99.99,,2013-02-05 00:42:00,
2013-02-04 17:52:00,23.0,17.0,-100.00,North,-999,-999.0,-999.0,79,-99.99,,,-99.99,,2013-02-05 00:52:00,
2013-02-04 18:01:00,22.0,16.0,-100.00,North,-999,-999.0,-999.0,79,-99.99,,,-99.99,,2013-02-05 01:01:00,
2013-02-04 18:11:00,22.0,16.0,-100.00,North,-999,-999.0,-999.0,79,-99.99,,,-99.99,,2013-02-05 01:11:00,
2013-02-04 18:21:00,23.0,17.0,-100.00,North,-999,-999.0,-999.0,76,-99.99,,,-99.99,,2013-02-05 01:21:00,
2013-02-04 18:32:00,22.0,16.0,-100.00,North,-999,-999.0,-999.0,77,-99.99,,,-99.99,,2013-02-05 01:32:00,
2013-02-04 18:42:00,22.0,16.0,-100.00,North,-999,-999.0,-999.0,77,-99.99,,,-99.99,,2013-02-05 01:42:00,
2013-02-04 18:52:00,21.0,16.0,-100.00,North,-999,-999.0,-999.0,81,-99.99,,,-99.99,,2013-02-05 01:52:00,
2013-02-04 19:01:00,20.0,16.0,-100.00,North,-999,-999.0,-999.0,84,-99.99,,,-99.99,,2013-02-05 02:01:00,
2013-02-04 19:11:00,20.0,16.0,-100.00,North,-999,-999.0,-999.0,84,-99.99,,,-99.99,,2013-02-05 02:11:00,
2013-02-04 19:21:00,21.0,15.0,-100.00,North,-999,-999.0,-999.0,78,-99.99,,,-99.99,,2013-02-05 02:21:00,
2013-02-04 19:31:00,23.0,16.0,-100.00,North,-999,-999.0,-999.0,73,-99.99,,,-99.99,,2013-02-05 02:31:00,
2013-02-04 19:41:00,23.0,16.0,-100.00,North,-999,-999.0,-999.0,73,-99.99,,,-99.99,,2013-02-05 02:41:00,
2013-02-04 19:52:00,23.0,16.0,-100.00,North,-999,-999.0,-999.0,75,-99.99,,,-99.99,,2013-02-05 02:52:00,
2013-02-04 20:01:00,23.0,17.0,-100.00,North,-999,-999.0,-999.0,76,-99.99,,,-99.99,,2013-02-05 03:01:00,
2013-02-04 20:11:00,23.0,17.0,-100.00,North,-999,-999.0,-999.0,76,-99.99,,,-99.99,,2013-02-05 03:11:00,
2013-02-04 20:21:00,23.0,17.0,-100.00,North,-999,-999.0,-999.0,76,-99.99,,,-99.99,,2013-02-05 03:21:00,
2013-02-04 20:31:00,21.0,16.0,-100.00,North,-999,-999.0,-999.0,81,-99.99,,,-99.99,,2013-02-05 03:31:00,
2013-02-04 20:41:00,21.0,16.0,-100.00,North,-999,-999.0,-999.0,81,-99.99,,,-99.99,,2013-02-05 03:41:00,
2013-02-04 20:52:00,20.0,16.0,-100.00,North,-999,-999.0,-999.0,84,-99.99,,,-99.99,,2013-02-05 03:52:00,
2013-02-04 21:01:00,22.0,17.0,-100.00,North,-999,-999.0,-999.0,80,-99.99,,,-99.99,,2013-02-05 04:01:00,
2013-02-04 21:11:00,22.0,17.0,-100.00,North,-999,-999.0,-999.0,80,-99.99,,,-99.99,,2013-02-05 04:11:00,
2013-02-04 21:21:00,23.0,17.0,-100.00,North,-999,-999.0,-999.0,78,-99.99,,,-99.99,,2013-02-05 04:21:00,
2013-02-04 21:31:00,21.0,16.0,-100.00,North,-999,-999.0,-999.0,81,-99.99,,,-99.99,,2013-02-05 04:31:00,
2013-02-04 21:41:00,21.0,16.0,-100.00,North,-999,-999.0,-999.0,81,-99.99,,,-99.99,,2013-02-05 04:41:00,
2013-02-04 21:52:00,20.0,16.0,-100.00,North,-999,-999.0,-999.0,84,-99.99,,,-99.99,,2013-02-05 04:52:00,
2013-02-04 22:02:00,20.0,17.0,-100.00,North,-999,-999.0,-999.0,87,-99.99,,,-99.99,,2013-02-05 05:02:00,
2013-02-04 22:11:00,20.0,17.0,-100.00,North,-999,-999.0,-999.0,87,-99.99,,,-99.99,,2013-02-05 05:11:00,
2013-02-04 22:21:00,21.0,17.0,-100.00,North,-999,-999.0,-999.0,84,-99.99,,,-99.99,,2013-02-05 05:21:00,
2013-02-04 22:31:00,24.0,18.0,-100.00,North,-999,-999.0,-999.0,77,-99.99,,,-99.99,,2013-02-05 05:31:00,
2013-02-04 22:42:00,24.0,18.0,-100.00,North,-999,-999.0,-999.0,77,-99.99,,,-99.99,,2013-02-05 05:42:00,
2013-02-04 22:52:00,24.0,17.0,-100.00,North,-999,-999.0,-999.0,75,-99.99,,,-99.99,,2013-02-05 05:52:00,
2013-02-04 23:01:00,23.0,17.0,-100.00,North,-999,-999.0,-999.0,77,-99.99,,,-99.99,,2013-02-05 06:01:00,
2013-02-04 23:11:00,23.0,17.0,-100.00,North,-999,-999.0,-999.0,77,-99.99,,,-99.99,,2013-02-05 06:11:00,
2013-02-04 23:21:00,22.0,16.0,-100.00,North,-999,-999.0,-999.0,79,-99.99,,,-99.99,,2013-02-05 06:21:00,
2013-02-04 23:31:00,24.0,15.0,-100.00,North,-999,-999.0,-999.0,69,-99.99,,,-99.99,,2013-02-05 06:31:00,
2013-02-04 23:41:00,24.0,15.0,-100.00,North,-999,-999.0,-999.0,69,-99.99,,,-99.99,,2013-02-05 06:41:00,
2013-02-04 23:52:00,25.0,17.0,-100.00,North,-999,-999.0,-999.0,70,-99.99,,,-99.99,,2013-02-05 06:52:00,